Time;durP1;ratioP1;P1;durP2;ratioP2;P2;SDS_P1;SDS_P2;PMS_P1;PMS_P2;Temp;Humidity;BMP_temperature;BMP_pressure;BME280_temperature;BME280_humidity;BME280_pressure;Samples;Min_cycle;Max_cycle;Signal;HPM_P1;HPM_P2
2022/08/12 00:43:35;;;;;;;6.47;4.87;;;23.90;99.90;;;;;;6186823;23;20188;-90
2022/08/12 00:48:48;;;;;;;8.93;4.57;;;23.80;99.90;;;;;;6177280;23;20159;-93
2022/08/12 00:51:15;;;;;;;8.97;4.27;;;23.80;99.90;;;;;;6150004;23;20165;-93
2022/08/12 00:53:53;;;;;;;7.40;4.63;;;23.80;1.00;;;;;;6177103;23;20143;-90
2022/08/12 00:56:21;;;;;;;7.97;5.20;;;23.70;99.90;;;;;;6202235;23;20168;-93
2022/08/12 00:58:50;;;;;;;6.63;4.80;;;23.80;99.90;;;;;;6153521;23;20160;-90
2022/08/12 01:01:17;;;;;;;9.60;4.50;;;23.70;99.90;;;;;;6187724;23;20133;-92
2022/08/12 01:12:14;;;;;;;8.30;4.80;;;23.60;99.90;;;;;;6206734;23;20140;-90
2022/08/12 01:14:43;;;;;;;6.50;5.00;;;23.60;99.90;;;;;;6159107;23;20177;-90
2022/08/12 01:17:12;;;;;;;6.47;4.47;;;23.70;99.90;;;;;;6183534;23;20200;-89
2022/08/12 01:19:39;;;;;;;11.63;4.90;;;23.70;99.90;;;;;;6185412;23;20147;-91
2022/08/12 01:22:22;;;;;;;10.70;5.07;;;23.60;99.90;;;;;;6213793;23;20144;-89
2022/08/12 01:25:11;;;;;;;8.43;4.47;;;23.50;99.90;;;;;;6188501;23;20191;-90
2022/08/12 01:27:41;;;;;;;7.67;4.70;;;23.50;99.90;;;;;;6188197;23;20148;-88
2022/08/12 01:33:39;;;;;;;8.27;5.03;;;23.50;99.90;;;;;;6195206;23;20165;-89
2022/08/12 01:36:27;;;;;;;7.43;4.53;;;23.40;99.90;;;;;;6169547;23;20152;-90
2022/08/12 01:38:58;;;;;;;8.20;5.10;;;23.40;1.00;;;;;;6163611;23;20156;-90
2022/08/12 01:41:38;;;;;;;10.43;5.00;;;23.40;1.00;;;;;;6189468;23;20133;-89
2022/08/12 01:44:09;;;;;;;6.43;4.60;;;23.40;1.00;;;;;;6162234;23;20184;-89
2022/08/12 01:46:42;;;;;;;8.13;5.17;;;23.40;1.00;;;;;;6161703;23;20152;-90
2022/08/12 01:49:41;;;;;;;12.93;4.80;;;23.40;1.00;;;;;;6162448;23;20660;-88
2022/08/12 01:52:11;;;;;;;8.87;5.10;;;23.40;1.00;;;;;;6161423;23;20148;-90
2022/08/12 01:54:51;;;;;;;9.90;5.20;;;23.30;1.00;;;;;;6161393;23;20223;-90
2022/08/12 01:57:43;;;;;;;6.93;4.73;;;23.20;1.00;;;;;;6161058;23;20151;-91
2022/08/12 02:00:12;;;;;;;11.70;5.10;;;23.20;1.00;;;;;;6161189;23;20172;-89
2022/08/12 02:03:17;;;;;;;8.63;5.10;;;23.10;99.90;;;;;;6160748;23;20153;-92
2022/08/12 02:12:00;;;;;;;7.83;4.80;;;23.20;99.90;;;;;;6187556;23;20597;-89
2022/08/12 02:14:47;;;;;;;11.93;5.50;;;23.20;99.90;;;;;;6161188;23;20171;-90
2022/08/12 02:17:47;;;;;;;8.13;4.73;;;23.20;89.20;;;;;;6160706;23;20156;-89
2022/08/12 02:20:34;;;;;;;10.97;5.50;;;23.20;99.90;;;;;;6160455;23;20152;-89
2022/08/12 02:23:03;;;;;;;7.77;5.03;;;23.00;1.00;;;;;;6158798;23;20160;-89
2022/08/12 02:25:37;;;;;;;11.07;5.27;;;22.80;1.00;;;;;;6189751;23;20648;-89
2022/08/12 02:28:03;;;;;;;7.87;4.87;;;22.90;99.90;;;;;;6164403;23;20154;-89
2022/08/12 02:30:31;;;;;;;8.60;5.17;;;22.80;99.90;;;;;;6160586;23;20552;-90
2022/08/12 02:33:00;;;;;;;8.20;4.77;;;22.80;99.90;;;;;;6160069;23;20513;-89
2022/08/12 02:35:35;;;;;;;8.53;5.47;;;22.80;99.90;;;;;;6162695;23;20160;-94
2022/08/12 02:38:05;;;;;;;8.03;5.00;;;22.70;1.00;;;;;;6176450;23;20165;-93
2022/08/12 02:40:35;;;;;;;10.23;5.40;;;22.70;99.90;;;;;;6174053;23;20154;-95
2022/08/12 02:43:33;;;;;;;9.30;5.47;;;22.60;1.00;;;;;;6176367;23;20158;-93
2022/08/12 02:46:11;;;;;;;11.37;5.20;;;22.60;1.00;;;;;;6190239;23;20202;-96
2022/08/12 02:48:44;;;;;;;7.13;4.67;;;22.60;1.00;;;;;;6174909;23;20171;-94
2022/08/12 02:51:18;;;;;;;8.80;5.37;;;22.60;99.90;;;;;;6174871;23;20163;-91
2022/08/12 02:53:45;;;;;;;9.57;5.43;;;22.50;99.90;;;;;;6177384;23;20166;-93
2022/08/12 02:56:13;;;;;;;8.90;5.00;;;22.50;1.00;;;;;;6156993;23;20155;-94
2022/08/12 02:58:43;;;;;;;7.53;4.87;;;22.50;99.90;;;;;;6179320;23;20158;-96
2022/08/12 03:01:10;;;;;;;8.53;5.00;;;22.40;1.00;;;;;;6206147;23;20151;-88
2022/08/12 03:03:38;;;;;;;11.70;5.53;;;22.40;99.90;;;;;;6184400;23;20161;-91
2022/08/12 03:06:15;;;;;;;7.60;5.10;;;22.30;1.00;;;;;;6188115;23;20139;-90
2022/08/12 03:08:47;;;;;;;8.60;5.17;;;22.30;1.00;;;;;;6186211;23;20139;-91
2022/08/12 03:11:20;;;;;;;9.63;5.17;;;22.20;29.30;;;;;;6212553;23;20146;-91
2022/08/12 03:13:58;;;;;;;8.43;5.13;;;22.20;99.90;;;;;;6188032;23;20162;-92
2022/08/12 03:16:33;;;;;;;10.90;5.60;;;22.10;99.90;;;;;;6187784;23;20178;-92
2022/08/12 03:19:02;;;;;;;10.37;5.10;;;22.30;1.00;;;;;;6188701;23;20184;-92
2022/08/12 03:21:29;;;;;;;7.33;5.47;;;22.30;1.00;;;;;;6165399;23;20144;-92
2022/08/12 03:23:58;;;;;;;9.00;5.13;;;22.20;1.00;;;;;;6185961;23;20254;-91
2022/08/12 03:26:28;;;;;;;7.97;5.50;;;22.20;1.00;;;;;;6205053;23;20143;-90
2022/08/12 03:28:56;;;;;;;9.27;5.47;;;22.20;99.90;;;;;;6142211;23;20163;-91
2022/08/12 03:31:28;;;;;;;10.90;5.30;;;22.10;33.30;;;;;;6165325;23;20599;-90
2022/08/12 03:34:28;;;;;;;8.03;5.00;;;22.10;91.40;;;;;;6164833;23;20150;-90
2022/08/12 03:36:57;;;;;;;10.33;5.63;;;22.00;99.90;;;;;;6163803;23;20193;-90
2022/08/12 03:39:45;;;;;;;10.77;5.87;;;21.90;1.00;;;;;;6190698;23;20158;-92
2022/08/12 03:42:13;;;;;;;10.90;6.03;;;21.80;99.90;;;;;;6164536;23;20154;-90
2022/08/12 04:02:15;;;;;;;11.03;6.70;;;21.60;99.90;;;;;;6188381;23;20174;-90
2022/08/12 04:04:49;;;;;;;12.83;6.53;;;21.50;99.90;;;;;;6172578;23;20190;-89
2022/08/12 04:07:15;;;;;;;13.80;6.17;;;21.60;99.90;;;;;;6185586;23;20586;-86
2022/08/12 04:09:43;;;;;;;11.33;5.80;;;21.50;99.90;;;;;;6165797;23;20668;-87
2022/08/12 04:14:56;;;;;;;10.37;6.00;;;21.30;99.90;;;;;;6188284;23;20189;-89
2022/08/12 04:17:22;;;;;;;9.30;5.90;;;21.20;1.00;;;;;;6173200;23;20159;-87
2022/08/12 04:19:49;;;;;;;9.57;5.90;;;21.20;99.90;;;;;;6167408;23;20181;-88
2022/08/12 04:22:15;;;;;;;9.37;5.77;;;21.20;1.00;;;;;;6167150;23;20148;-86
2022/08/12 04:24:43;;;;;;;7.73;5.60;;;21.20;99.90;;;;;;6177246;23;20262;-87
2022/08/12 04:27:10;;;;;;;12.53;5.97;;;21.40;1.00;;;;;;6185196;23;20153;-85
2022/08/12 04:29:38;;;;;;;12.83;6.10;;;21.30;1.00;;;;;;6186144;23;20160;-88
2022/08/12 04:32:05;;;;;;;13.03;5.83;;;21.40;1.00;;;;;;6178102;23;20215;-87
2022/08/12 04:34:37;;;;;;;17.10;7.03;;;21.40;1.00;;;;;;6179457;23;20157;-91
2022/08/12 04:37:05;;;;;;;11.07;6.00;;;21.40;99.90;;;;;;6205067;23;20151;-86
2022/08/12 04:39:33;;;;;;;10.20;6.33;;;21.40;1.00;;;;;;6183153;23;20161;-95
2022/08/12 04:42:29;;;;;;;15.37;7.00;;;21.20;1.00;;;;;;6194213;23;20463;-92
2022/08/12 04:44:58;;;;;;;9.77;6.10;;;21.10;1.00;;;;;;6166044;23;20579;-91
2022/08/12 04:47:26;;;;;;;15.67;6.57;;;21.10;94.70;;;;;;6166485;23;20153;-93
2022/08/12 04:49:53;;;;;;;17.57;6.70;;;21.20;1.00;;;;;;6118900;23;20531;-93
2022/08/12 04:52:20;;;;;;;12.37;6.47;;;21.20;1.00;;;;;;6165809;23;20501;-94
2022/08/12 04:54:47;;;;;;;15.10;6.90;;;21.30;1.00;;;;;;6186003;23;20150;-88
2022/08/12 04:57:13;;;;;;;16.70;7.10;;;21.30;1.00;;;;;;6151872;23;20181;-91
2022/08/12 04:59:41;;;;;;;14.67;6.40;;;21.20;1.00;;;;;;6167542;23;20173;-91
2022/08/12 05:02:10;;;;;;;16.33;6.60;;;21.20;1.00;;;;;;6165743;23;20166;-91
2022/08/12 05:04:37;;;;;;;13.53;6.80;;;21.20;23.10;;;;;;6163626;23;20201;-93
2022/08/12 05:07:04;;;;;;;18.47;6.33;;;21.20;99.90;;;;;;6166227;23;20153;-92
2022/08/12 05:09:33;;;;;;;18.63;7.10;;;21.20;99.90;;;;;;6193893;23;20188;-93
2022/08/12 05:12:02;;;;;;;10.93;5.97;;;21.30;29.00;;;;;;6170900;23;20214;-90
2022/08/12 05:14:29;;;;;;;14.07;6.70;;;21.40;99.90;;;;;;6168367;23;20165;-92
2022/08/12 05:16:56;;;;;;;13.50;6.63;;;21.40;1.00;;;;;;6196528;23;20138;-92
2022/08/12 05:19:23;;;;;;;14.13;6.57;;;21.40;1.00;;;;;;6198195;23;20172;-92
2022/08/12 05:21:48;;;;;;;15.37;6.47;;;21.30;99.90;;;;;;6148130;23;20185;-90
2022/08/12 05:24:14;;;;;;;18.10;6.70;;;21.30;1.00;;;;;;6176170;23;20185;-95
2022/08/12 05:26:40;;;;;;;18.07;7.13;;;21.20;1.00;;;;;;6174707;23;20241;-88
2022/08/12 05:29:11;;;;;;;14.50;6.83;;;21.20;78.70;;;;;;6172134;23;20181;-96
2022/08/12 05:31:55;;;;;;;18.43;8.33;;;21.20;99.90;;;;;;6170450;23;20232;-89
2022/08/12 05:34:22;;;;;;;18.10;6.97;;;21.30;90.60;;;;;;6193380;23;20475;-96
2022/08/12 05:36:48;;;;;;;19.07;7.03;;;21.50;67.80;;;;;;6166191;23;20153;-92
2022/08/12 05:39:43;;;;;;;22.27;7.20;;;21.50;1.00;;;;;;6191369;23;20168;-96
2022/08/12 05:42:08;;;;;;;21.20;7.07;;;21.50;1.00;;;;;;6165876;23;20154;-91
2022/08/12 05:44:35;;;;;;;17.83;7.13;;;21.50;1.00;;;;;;6165150;23;20689;-89
2022/08/12 05:47:01;;;;;;;21.63;7.87;;;21.60;1.00;;;;;;6190996;23;20223;-92
2022/08/12 05:49:28;;;;;;;18.60;7.57;;;21.70;1.00;;;;;;6167563;23;20154;-92
2022/08/12 05:51:54;;;;;;;13.40;7.17;;;21.80;99.90;;;;;;6168798;23;20144;-93
2022/08/12 05:54:20;;;;;;;19.07;7.20;;;21.80;99.90;;;;;;6194419;23;20143;-95
2022/08/12 05:56:47;;;;;;;18.20;7.93;;;21.80;1.00;;;;;;6169563;23;20162;-85
2022/08/12 05:59:13;;;;;;;16.03;7.17;;;22.00;99.90;;;;;;6193327;23;20177;-93
2022/08/12 06:01:40;;;;;;;20.23;7.47;;;22.00;99.90;;;;;;6182715;23;20173;-91
2022/08/12 06:04:08;;;;;;;17.27;7.23;;;22.20;99.90;;;;;;6197715;23;20175;-88
2022/08/12 06:06:38;;;;;;;19.00;7.27;;;22.30;1.00;;;;;;6176251;23;20151;-86
2022/08/12 06:09:03;;;;;;;16.40;7.07;;;22.40;1.00;;;;;;6173140;23;20237;-88
2022/08/12 06:11:29;;;;;;;18.43;7.40;;;22.40;1.00;;;;;;6185573;23;20142;-89
2022/08/12 06:13:58;;;;;;;16.90;7.17;;;22.50;99.90;;;;;;6186603;23;20152;-91
2022/08/12 06:16:31;;;;;;;18.03;7.33;;;22.50;99.90;;;;;;6187309;23;20167;-96
2022/08/12 06:18:59;;;;;;;21.20;6.90;;;22.60;99.90;;;;;;6201749;23;20218;-94
2022/08/12 06:21:47;;;;;;;24.40;7.57;;;22.70;1.00;;;;;;6165721;23;20160;-96
2022/08/12 06:24:18;;;;;;;23.90;7.47;;;22.80;99.90;;;;;;6165001;23;20278;-94
2022/08/12 06:26:44;;;;;;;23.90;8.03;;;22.80;99.90;;;;;;6162234;23;20155;-87
2022/08/12 06:29:18;;;;;;;16.97;7.63;;;22.80;1.00;;;;;;6166028;23;20188;-86
2022/08/12 06:31:50;;;;;;;15.97;7.17;;;22.90;99.90;;;;;;6175125;23;20163;-88
2022/08/12 06:34:21;;;;;;;18.47;6.80;;;23.00;1.00;;;;;;6191877;23;20129;-90
2022/08/12 06:36:54;;;;;;;17.67;6.93;;;23.10;1.00;;;;;;6164204;23;20159;-89
2022/08/12 06:39:22;;;;;;;20.47;6.77;;;23.30;99.90;;;;;;6165104;23;20648;-89
2022/08/12 06:44:32;;;;;;;18.60;6.30;;;23.40;99.90;;;;;;6190226;23;20210;-90
2022/08/12 06:46:59;;;;;;;16.47;7.00;;;23.50;1.00;;;;;;6166826;23;20589;-87
2022/08/12 06:49:33;;;;;;;17.97;6.43;;;23.60;1.00;;;;;;6171737;23;20160;-87
2022/08/12 06:52:06;;;;;;;15.03;6.23;;;23.70;99.90;;;;;;6201010;23;20156;-88
2022/08/12 06:54:41;;;;;;;19.30;6.87;;;23.80;99.90;;;;;;6166657;23;20177;-90
2022/08/12 06:57:07;;;;;;;11.17;5.87;;;23.90;99.90;;;;;;6169988;23;20464;-88
2022/08/12 06:59:34;;;;;;;10.40;5.53;;;24.00;1.00;;;;;;6164838;23;20204;-87
2022/08/12 07:02:02;;;;;;;13.00;5.40;;;24.00;1.00;;;;;;6171987;23;20149;-88
2022/08/12 07:04:27;;;;;;;10.43;5.13;;;24.10;99.90;;;;;;6148049;23;20291;-87
2022/08/12 07:06:56;;;;;;;10.00;5.17;;;24.20;99.90;;;;;;6147578;23;20161;-87
2022/08/12 07:09:28;;;;;;;11.57;5.33;;;24.30;1.00;;;;;;6167535;23;20220;-90
2022/08/12 07:11:55;;;;;;;12.47;4.73;;;24.30;40.20;;;;;;6170649;23;20154;-89
2022/08/12 07:14:36;;;;;;;8.97;4.63;;;24.40;1.00;;;;;;6164074;23;20598;-90
2022/08/12 07:17:02;;;;;;;7.37;4.40;;;24.50;1.00;;;;;;6162523;23;20231;-88
2022/08/12 07:19:28;;;;;;;8.53;4.80;;;24.70;1.00;;;;;;6138180;23;20606;-89
2022/08/12 07:21:54;;;;;;;6.60;4.20;;;24.80;99.90;;;;;;6170215;23;20164;-88
2022/08/12 07:24:20;;;;;;;8.83;5.03;;;24.90;99.90;;;;;;6174339;23;20197;-89
2022/08/12 07:26:53;;;;;;;8.37;4.60;;;25.10;99.90;;;;;;6180343;23;20156;-92
2022/08/12 07:29:24;;;;;;;9.70;5.23;;;25.20;99.90;;;;;;6182003;23;20610;-90
2022/08/12 07:31:58;;;;;;;11.97;5.17;;;25.30;99.90;;;;;;6165433;23;20160;-88
2022/08/12 07:34:32;;;;;;;11.50;5.40;;;25.30;99.90;;;;;;6189021;23;20611;-87
2022/08/12 07:37:00;;;;;;;6.37;3.97;;;25.40;1.00;;;;;;6163795;23;20164;-92
2022/08/12 07:39:31;;;;;;;11.03;4.50;;;25.40;99.90;;;;;;6162531;23;20154;-88
2022/08/12 07:42:00;;;;;;;12.20;4.37;;;25.40;99.90;;;;;;6161992;23;20161;-90
2022/08/12 07:44:43;;;;;;;12.63;4.67;;;25.50;99.90;;;;;;6191109;23;20181;-96
2022/08/12 07:47:09;;;;;;;10.40;5.03;;;25.60;99.90;;;;;;6204455;23;20216;-96
2022/08/12 07:49:36;;;;;;;7.60;4.13;;;25.70;99.90;;;;;;6176259;23;20157;-96
2022/08/12 07:52:05;;;;;;;8.53;4.63;;;25.60;99.90;;;;;;6175765;23;20235;-96
2022/08/12 07:54:31;;;;;;;8.80;5.07;;;25.60;99.90;;;;;;6148957;23;20152;-96
2022/08/12 07:56:57;;;;;;;11.40;4.77;;;25.70;99.90;;;;;;6173671;23;20181;-95
2022/08/12 07:59:24;;;;;;;8.57;4.23;;;25.70;99.90;;;;;;6196860;23;20174;-96
2022/08/12 08:01:51;;;;;;;8.13;4.00;;;25.80;99.90;;;;;;6123490;23;20162;-96
2022/08/12 08:07:15;;;;;;;11.60;4.20;;;25.80;89.00;;;;;;6201122;23;20143;-95
2022/08/12 08:09:44;;;;;;;10.93;4.50;;;26.00;35.10;;;;;;6174408;23;20260;-96
2022/08/12 08:14:57;;;;;;;11.70;5.33;;;26.20;73.60;;;;;;6201724;23;20201;-94
2022/08/12 08:17:27;;;;;;;11.13;5.40;;;26.30;99.90;;;;;;6176952;23;20153;-96
2022/08/12 08:19:54;;;;;;;11.77;5.30;;;26.20;99.90;;;;;;6201753;23;20140;-96
2022/08/12 08:22:23;;;;;;;13.87;5.37;;;26.10;99.90;;;;;;6172982;23;20157;-96
2022/08/12 08:24:56;;;;;;;10.80;5.67;;;26.30;99.90;;;;;;6171953;23;20240;-96
2022/08/12 08:27:23;;;;;;;10.23;4.87;;;26.30;99.90;;;;;;6196153;23;20133;-96
2022/08/12 08:29:54;;;;;;;14.03;5.17;;;26.50;99.90;;;;;;6173977;23;20154;-93
2022/08/12 08:32:27;;;;;;;15.17;5.50;;;26.60;99.90;;;;;;6195726;23;20152;-93
2022/08/12 08:34:53;;;;;;;8.87;5.03;;;26.60;99.90;;;;;;6199572;23;20153;-93
2022/08/12 08:37:20;;;;;;;10.70;5.00;;;26.80;99.90;;;;;;6174512;23;20586;-93
2022/08/12 08:39:47;;;;;;;10.00;4.50;;;26.80;99.90;;;;;;6176352;23;20146;-85
2022/08/12 08:44:57;;;;;;;11.13;5.17;;;27.10;16.80;;;;;;6203815;23;20279;-94
2022/08/12 08:47:23;;;;;;;10.38;4.53;;;27.20;45.40;;;;;;6172934;23;20533;-92
2022/08/12 08:49:49;;;;;;;7.53;4.80;;;27.20;7.40;;;;;;6193008;23;20133;-96
2022/08/12 08:52:14;;;;;;;7.50;4.30;;;27.20;9.40;;;;;;6192537;23;20144;-94
2022/08/12 08:54:40;;;;;;;13.33;4.57;;;27.10;1.00;;;;;;6164884;23;20271;-94
2022/08/12 08:57:07;;;;;;;10.23;4.60;;;27.20;1.00;;;;;;6194880;23;20163;-96
2022/08/12 08:59:34;;;;;;;7.93;4.03;;;27.30;1.00;;;;;;6170732;23;20186;-93
2022/08/12 09:01:59;;;;;;;12.67;4.90;;;27.30;1.00;;;;;;6195248;23;20167;-94
2022/08/12 09:04:25;;;;;;;8.27;4.23;;;27.30;1.00;;;;;;6170753;23;20535;-92
2022/08/12 09:06:59;;;;;;;8.27;4.40;;;27.40;1.00;;;;;;6143727;23;20539;-94
2022/08/12 09:09:26;;;;;;;7.82;4.25;;;27.50;1.00;;;;;;6170287;23;20214;-92
2022/08/12 09:14:42;;;;;;;8.30;4.05;;;27.80;1.00;;;;;;6200287;23;20485;-91
2022/08/12 09:17:12;;;;;;;10.88;4.00;;;27.90;1.00;;;;;;6186030;23;20185;-87
2022/08/12 09:19:59;;;;;;;7.50;4.13;;;27.90;1.00;;;;;;6187604;23;20165;-92
2022/08/12 09:22:27;;;;;;;7.93;3.22;;;28.00;1.00;;;;;;6181581;23;20219;-92
2022/08/12 09:24:52;;;;;;;10.48;3.70;;;28.00;1.00;;;;;;6173825;23;20185;-87
2022/08/12 09:27:24;;;;;;;7.00;4.38;;;28.30;1.00;;;;;;6190727;23;20149;-87
2022/08/12 09:29:55;;;;;;;9.73;4.15;;;28.40;1.00;;;;;;6162171;23;20156;-86
2022/08/12 09:32:20;;;;;;;9.73;3.80;;;28.50;1.00;;;;;;6164447;23;20182;-88
2022/08/12 09:34:47;;;;;;;9.63;4.25;;;28.50;1.00;;;;;;6176674;23;20165;-93
2022/08/12 09:37:13;;;;;;;11.82;3.78;;;28.50;1.00;;;;;;6213448;23;20122;-92
2022/08/12 09:39:39;;;;;;;21.33;4.13;;;28.60;1.00;;;;;;6177305;23;20157;-86
2022/08/12 09:45:22;;;;;;;8.13;3.20;;;28.60;1.00;;;;;;6193499;23;20193;-93
2022/08/12 09:47:53;;;;;;;7.85;3.50;;;28.60;1.00;;;;;;6170668;23;20184;-93
2022/08/12 09:50:22;;;;;;;9.40;3.47;;;28.60;1.00;;;;;;6171507;23;20156;-90
2022/08/12 09:53:06;;;;;;;5.78;3.75;;;28.80;1.00;;;;;;6118278;23;20223;-89
2022/08/12 09:55:39;;;;;;;6.72;3.35;;;29.00;1.00;;;;;;6196460;23;20153;-86
2022/08/12 09:58:05;;;;;;;8.50;3.30;;;29.20;1.00;;;;;;6177613;23;20162;-91
2022/08/12 10:00:38;;;;;;;8.85;2.88;;;29.30;1.00;;;;;;6179886;23;20192;-88
2022/08/12 10:03:09;;;;;;;10.38;3.35;;;29.40;1.00;;;;;;6187355;23;20151;-88
2022/08/12 10:05:44;;;;;;;4.38;2.80;;;29.30;1.00;;;;;;6214213;23;20184;-88
2022/08/12 10:08:17;;;;;;;6.00;3.00;;;29.20;1.00;;;;;;6183760;23;20161;-85
2022/08/12 10:13:41;;;;;;;6.40;2.72;;;29.20;1.00;;;;;;6198746;23;20196;-88
2022/08/12 10:16:16;;;;;;;6.30;3.65;;;29.40;1.00;;;;;;6174126;23;20184;-91
2022/08/12 10:18:56;;;;;;;8.80;3.25;;;29.50;1.00;;;;;;6200789;23;20137;-91
2022/08/12 10:21:29;;;;;;;10.80;3.08;;;29.50;1.00;;;;;;6153226;23;20165;-93
2022/08/12 10:23:57;;;;;;;10.85;3.20;;;29.50;99.90;;;;;;6175988;23;20181;-90
2022/08/12 10:29:46;;;;;;;4.30;2.80;;;29.50;99.90;;;;;;6214557;23;20164;-90
2022/08/12 10:32:58;;;;;;;10.43;3.50;;;29.70;99.90;;;;;;6188600;23;20146;-89
2022/08/12 10:35:46;;;;;;;6.07;3.03;;;29.80;99.90;;;;;;6185167;23;20177;-89
2022/08/12 10:38:16;;;;;;;6.78;2.85;;;29.80;99.90;;;;;;6181373;23;20153;-89
2022/08/12 10:45:00;;;;;;;5.63;2.63;;;29.90;99.90;;;;;;6202666;23;20188;-90
2022/08/12 10:48:21;;;;;;;8.95;2.78;;;29.80;99.90;;;;;;6182990;23;20141;-89
2022/08/12 10:55:06;;;;;;;6.43;2.70;;;30.00;99.90;;;;;;6215321;23;20202;-90
2022/08/12 10:58:01;;;;;;;15.60;3.80;;;30.00;99.90;;;;;;6160379;23;20162;-90
2022/08/12 11:00:37;;;;;;;12.27;2.97;;;30.20;99.90;;;;;;6196566;23;20168;-91
2022/08/12 11:03:20;;;;;;;14.82;3.40;;;30.20;99.90;;;;;;6196510;23;20152;-91
2022/08/12 11:06:41;;;;;;;5.68;2.85;;;30.30;99.90;;;;;;6167948;23;20189;-89
2022/08/12 11:09:18;;;;;;;6.60;3.05;;;30.40;99.90;;;;;;6171240;23;20161;-90
2022/08/12 11:12:23;;;;;;;3.95;2.65;;;30.50;99.90;;;;;;6169857;23;20141;-90
2022/08/12 11:15:23;;;;;;;34.47;5.57;;;30.50;99.90;;;;;;6161864;23;20158;-89
2022/08/12 11:17:52;;;;;;;6.57;3.13;;;30.50;99.90;;;;;;6158500;23;20154;-90
2022/08/12 11:20:53;;;;;;;6.50;2.92;;;30.40;99.90;;;;;;6114829;23;20507;-90
2022/08/12 11:23:34;;;;;;;6.40;2.72;;;30.50;99.90;;;;;;6043888;23;20538;-90
2022/08/12 11:26:04;;;;;;;6.05;2.83;;;30.50;99.90;;;;;;6077602;23;20689;-90
2022/08/12 11:28:51;;;;;;;6.82;2.92;;;30.50;99.90;;;;;;6162297;23;20150;-90
2022/08/12 11:31:29;;;;;;;12.90;4.00;;;30.70;99.90;;;;;;6134399;23;20503;-90
2022/08/12 11:34:07;;;;;;;4.15;2.30;;;30.90;99.90;;;;;;6133365;23;20525;-90
2022/08/12 11:36:35;;;;;;;7.47;2.60;;;30.80;99.90;;;;;;6132431;23;20162;-90
2022/08/12 11:39:12;;;;;;;5.82;2.65;;;30.70;99.90;;;;;;6155361;23;20219;-88
2022/08/12 11:42:22;;;;;;;;;;;;;;;;;;;;;
2022/08/12 11:45:10;;;;;;;7.63;2.63;;;30.80;99.90;;;;;;6179462;23;20331;-90
2022/08/12 11:47:50;;;;;;;5.57;2.72;;;30.90;99.90;;;;;;6152925;23;20153;-90
2022/08/12 11:50:27;;;;;;;4.88;2.70;;;31.10;99.90;;;;;;6154096;23;20157;-90
2022/08/12 11:53:27;;;;;;;8.98;3.17;;;31.20;99.90;;;;;;6153653;23;20457;-89
2022/08/12 11:56:28;;;;;;;4.25;2.38;;;31.00;99.90;;;;;;6148588;23;20206;-90
2022/08/12 11:59:00;;;;;;;5.18;2.38;;;31.00;99.90;;;;;;6151422;23;20154;-90
2022/08/12 12:02:01;;;;;;;7.43;2.70;;;31.10;99.90;;;;;;6181427;23;20202;-89
2022/08/12 12:04:49;;;;;;;8.15;2.72;;;31.50;99.90;;;;;;6155796;23;20208;-90
2022/08/12 12:07:54;;;;;;;;;;;;;;;;;;;;;
2022/08/12 12:10:57;;;;;;;7.75;2.65;;;31.60;99.90;;;;;;6181082;23;20138;-89
2022/08/12 12:13:28;;;;;;;6.60;2.55;;;31.50;99.90;;;;;;6131742;23;20157;-91
2022/08/12 12:16:06;;;;;;;3.05;2.17;;;31.60;99.90;;;;;;6181443;23;20158;-89
2022/08/12 12:19:10;;;;;;;5.50;2.40;;;31.50;99.90;;;;;;6157031;23;20180;-89
2022/08/12 12:25:07;;;;;;;8.90;3.00;;;31.30;99.90;;;;;;6176089;23;20193;-89
2022/08/12 12:28:15;;;;;;;4.85;2.40;;;31.30;99.90;;;;;;6166260;23;20135;-90
2022/08/12 12:30:57;;;;;;;6.07;2.42;;;31.40;99.90;;;;;;6089924;23;20158;-90
2022/08/12 12:33:24;;;;;;;4.40;2.47;;;31.40;99.90;;;;;;6136678;23;20150;-91
2022/08/12 12:36:07;;;;;;;7.88;2.78;;;31.60;99.90;;;;;;6161685;23;20169;-90
2022/08/12 12:39:12;;;;;;;5.22;2.53;;;31.70;99.90;;;;;;6135412;23;20297;-90
2022/08/12 12:42:13;;;;;;;4.90;2.38;;;31.60;99.90;;;;;;6161119;23;20188;-90
2022/08/12 12:45:06;;;;;;;4.38;2.50;;;31.90;99.90;;;;;;6154102;23;20589;-92
2022/08/12 12:48:08;;;;;;;4.15;2.50;;;32.30;99.90;;;;;;6160710;23;20166;-90
2022/08/12 12:50:48;;;;;;;4.75;2.47;;;32.00;99.90;;;;;;6114333;23;20212;-90
2022/08/12 12:53:46;;;;;;;5.35;2.60;;;32.10;99.90;;;;;;6164226;23;20159;-90
2022/08/12 12:56:34;;;;;;;5.63;2.03;;;32.00;99.90;;;;;;6147759;23;20189;-90
2022/08/12 12:59:30;;;;;;;7.07;2.60;;;32.00;99.90;;;;;;6111928;23;20182;-89
2022/08/12 13:02:13;;;;;;;5.35;2.50;;;31.80;99.90;;;;;;6135299;23;20154;-89
2022/08/12 13:04:58;;;;;;;7.40;2.50;;;32.00;99.90;;;;;;6110541;23;20193;-88
2022/08/12 13:07:57;;;;;;;7.88;2.30;;;32.00;99.90;;;;;;6138154;23;20433;-89
2022/08/12 13:11:07;;;;;;;6.00;2.75;;;31.70;99.90;;;;;;6122244;23;20162;-88
2022/08/12 13:14:29;;;;;;;5.90;2.10;;;31.60;99.90;;;;;;6137595;23;20237;-90
2022/08/12 13:17:16;;;;;;;4.03;2.20;;;31.80;99.90;;;;;;6137820;23;20150;-90
2022/08/12 13:19:42;;;;;;;7.68;2.47;;;32.10;99.90;;;;;;6135834;23;20164;-90
2022/08/12 13:22:43;;;;;;;5.68;2.17;;;32.00;99.90;;;;;;6134924;23;20146;-90
2022/08/12 13:25:14;;;;;;;3.97;2.42;;;31.80;99.90;;;;;;6133116;23;20189;-90
2022/08/12 13:27:51;;;;;;;8.90;2.53;;;31.70;99.90;;;;;;6132627;23;20230;-90
2022/08/12 13:30:51;;;;;;;3.55;2.20;;;31.70;99.90;;;;;;6158586;23;20146;-90
2022/08/12 13:33:41;;;;;;;5.10;2.30;;;31.70;99.90;;;;;;6142928;23;20162;-89
2022/08/12 13:36:25;;;;;;;;;;;;;;;;;;;;;
2022/08/12 13:39:32;;;;;;;10.73;2.40;;;31.90;99.90;;;;;;6177024;23;20138;-91
2022/08/12 13:42:40;;;;;;;4.45;2.70;;;31.80;99.90;;;;;;6180105;23;20162;-90
2022/08/12 13:46:02;;;;;;;6.00;2.30;;;31.70;99.90;;;;;;6157283;23;20178;-90
2022/08/12 13:48:36;;;;;;;5.93;2.40;;;31.80;99.90;;;;;;6157277;23;20229;-89
2022/08/12 13:51:34;;;;;;;3.53;2.17;;;32.10;99.90;;;;;;6157758;23;20150;-90
2022/08/12 13:54:50;;;;;;;3.58;2.10;;;32.10;99.90;;;;;;6154980;23;20145;-90
2022/08/12 14:01:04;;;;;;;3.83;2.28;;;32.80;99.90;;;;;;6180493;23;20193;-90
2022/08/12 14:04:04;;;;;;;5.63;2.60;;;32.60;99.90;;;;;;6153710;23;20138;-92
2022/08/12 14:07:07;;;;;;;5.05;2.33;;;32.50;99.90;;;;;;6156621;23;20158;-93
2022/08/12 14:12:57;;;;;;;6.70;2.33;;;32.80;99.90;;;;;;6180877;23;20189;-90
2022/08/12 14:16:09;;;;;;;5.55;2.38;;;32.50;99.90;;;;;;6154543;23;20222;-90
2022/08/12 14:19:09;;;;;;;4.70;2.20;;;32.50;99.90;;;;;;6155249;23;20283;-92
2022/08/12 14:22:16;;;;;;;6.50;2.30;;;32.90;99.90;;;;;;6181302;23;20246;-90
2022/08/12 14:25:23;;;;;;;5.78;2.33;;;32.70;99.90;;;;;;6181945;23;20213;-92
2022/08/12 14:27:49;;;;;;;6.35;2.22;;;32.40;99.90;;;;;;6144325;23;20181;-94
2022/08/12 14:30:25;;;;;;;4.63;2.17;;;32.30;99.90;;;;;;6141471;23;20159;-92
2022/08/12 14:32:50;;;;;;;3.50;2.47;;;32.40;99.90;;;;;;6172137;23;20114;-87
2022/08/12 14:35:18;;;;;;;4.68;2.33;;;32.70;99.90;;;;;;6175670;23;20186;-93
2022/08/12 14:37:45;;;;;;;5.57;2.40;;;33.20;99.90;;;;;;6169363;23;20135;-88
2022/08/12 14:40:17;;;;;;;12.18;2.97;;;33.60;99.90;;;;;;6152491;23;20193;-89
2022/08/12 14:42:42;;;;;;;6.07;2.60;;;33.60;99.90;;;;;;6127405;23;20222;-94
2022/08/12 14:45:11;;;;;;;6.40;2.22;;;33.60;99.90;;;;;;6150984;23;20194;-91
2022/08/12 14:47:48;;;;;;;8.40;2.70;;;33.40;99.90;;;;;;6183255;23;20131;-87
2022/08/12 14:50:17;;;;;;;4.22;2.35;;;33.10;99.90;;;;;;6131740;23;20153;-87
2022/08/12 14:53:13;;;;;;;5.47;2.53;;;32.80;99.90;;;;;;6156868;23;20123;-94
2022/08/12 14:55:48;;;;;;;5.70;2.33;;;32.70;99.90;;;;;;6124221;23;20209;-94
2022/08/12 14:58:18;;;;;;;9.98;2.90;;;32.50;99.90;;;;;;6144187;23;20154;-96
2022/08/12 15:03:32;;;;;;;6.70;2.58;;;32.20;99.90;;;;;;6151769;23;20181;-95
2022/08/12 15:06:05;;;;;;;3.85;2.35;;;32.60;99.90;;;;;;6155154;23;20190;-92
2022/08/12 15:08:40;;;;;;;8.77;2.22;;;32.60;99.90;;;;;;6153506;23;20172;-89
2022/08/12 15:11:12;;;;;;;7.78;2.45;;;32.60;99.90;;;;;;6155671;23;20149;-88
2022/08/12 15:13:47;;;;;;;2.42;1.70;;;32.50;99.90;;;;;;6147286;23;20150;-93
2022/08/12 15:16:15;;;;;;;4.85;2.45;;;32.50;99.90;;;;;;6141953;23;20150;-95
2022/08/12 15:18:47;;;;;;;5.95;2.55;;;32.60;99.90;;;;;;6140315;23;20150;-89
2022/08/12 15:21:13;;;;;;;3.75;2.25;;;32.80;99.90;;;;;;6140557;23;20237;-86
2022/08/12 15:23:40;;;;;;;7.78;2.40;;;32.60;99.90;;;;;;6180570;23;20180;-85
2022/08/12 15:26:12;;;;;;;5.30;1.83;;;32.60;99.90;;;;;;6182764;23;20243;-86
2022/08/12 15:28:43;;;;;;;5.55;2.05;;;32.50;99.90;;;;;;6154155;23;20151;-87
2022/08/12 15:31:14;;;;;;;3.75;2.33;;;32.70;99.90;;;;;;6174271;23;20594;-87
2022/08/12 15:33:41;;;;;;;10.45;2.60;;;32.70;99.90;;;;;;6145913;23;20178;-92
2022/08/12 15:36:14;;;;;;;6.45;2.22;;;32.80;99.90;;;;;;6138771;23;20168;-86
2022/08/12 15:38:57;;;;;;;3.15;2.28;;;33.10;99.90;;;;;;6140749;23;20154;-87
2022/08/12 15:41:46;;;;;;;6.53;2.30;;;33.00;99.90;;;;;;6136111;23;20151;-87
2022/08/12 15:44:33;;;;;;;5.65;2.55;;;33.00;99.90;;;;;;6134418;23;20190;-88